createdAt,value
2018-10-21T00:01:52.091Z,5.00
2018-10-21T00:04:20.729Z,5.03
2018-10-21T00:06:49.240Z,5.50
2018-10-21T00:09:17.890Z,6.07
2018-10-21T00:11:46.404Z,5.53
2018-10-21T00:14:14.941Z,5.23
2018-10-21T00:16:43.429Z,5.50
2018-10-21T00:19:11.966Z,5.13
2018-10-21T00:21:40.418Z,5.50
2018-10-21T00:24:08.900Z,5.33
2018-10-21T00:26:37.380Z,5.50
2018-10-21T00:29:06.091Z,5.03
2018-10-21T00:31:34.593Z,5.53
2018-10-21T00:34:03.214Z,5.70
2018-10-21T00:36:31.686Z,5.50
2018-10-21T00:39:00.175Z,6.30
2018-10-21T00:41:28.637Z,7.60
2018-10-21T00:43:57.123Z,7.80
2018-10-21T00:46:25.563Z,7.07
2018-10-21T00:48:54.049Z,7.17
2018-10-21T00:51:22.550Z,6.87
2018-10-21T00:53:51.060Z,7.63
2018-10-21T00:56:19.570Z,7.60
2018-10-21T00:58:48.024Z,7.43
2018-10-21T01:01:16.526Z,8.23
2018-10-21T01:03:45.036Z,7.43
2018-10-21T01:06:13.520Z,7.43
2018-10-21T01:08:42.012Z,7.50
2018-10-21T01:11:10.542Z,6.93
2018-10-21T01:13:38.990Z,5.57
2018-10-21T01:16:07.474Z,5.10
2018-10-21T01:18:35.947Z,5.07
2018-10-21T01:21:04.938Z,5.10
2018-10-21T01:23:33.392Z,4.87
2018-10-21T01:26:01.891Z,5.13
2018-10-21T01:28:30.366Z,6.27
2018-10-21T01:30:59.048Z,6.20
2018-10-21T01:33:27.549Z,5.80
2018-10-21T01:35:56.300Z,6.40
2018-10-21T01:38:24.873Z,5.80
2018-10-21T01:40:54.804Z,5.93
2018-10-21T01:43:26.539Z,6.10
2018-10-21T01:45:55.080Z,6.83
2018-10-21T01:48:25.242Z,7.07
2018-10-21T01:50:53.776Z,7.70
2018-10-21T01:53:22.684Z,8.23
2018-10-21T01:55:51.161Z,10.00
2018-10-21T01:58:20.359Z,11.73
2018-10-21T02:00:48.876Z,11.00
2018-10-21T02:03:18.403Z,12.53
2018-10-21T02:05:47.555Z,12.03
2018-10-21T02:08:16.170Z,13.23
2018-10-21T02:10:45.238Z,15.03
2018-10-21T02:13:13.801Z,17.13
2018-10-21T02:15:42.303Z,18.90
2018-10-21T02:18:10.889Z,19.60
2018-10-21T02:20:39.369Z,21.10
2018-10-21T02:23:07.895Z,22.53
2018-10-21T02:25:36.523Z,22.50
2018-10-21T02:28:05.068Z,25.03
2018-10-21T02:30:33.548Z,23.47
2018-10-21T02:33:02.428Z,24.63
2018-10-21T02:35:30.882Z,24.73
2018-10-21T02:37:59.453Z,24.00
2018-10-21T02:41:42.206Z,27.07
2018-10-21T02:44:11.961Z,26.37
2018-10-21T02:46:40.758Z,27.47
2018-10-21T02:49:10.125Z,26.80
2018-10-21T02:51:38.656Z,28.17
2018-10-21T02:54:07.801Z,26.93
2018-10-21T02:56:36.325Z,27.97
2018-10-21T02:59:05.794Z,26.97
2018-10-21T03:01:34.278Z,27.23
2018-10-21T03:04:02.954Z,27.07
2018-10-21T03:06:31.523Z,28.97
2018-10-21T03:09:00.062Z,28.20
2018-10-21T03:11:28.571Z,28.80
2018-10-21T03:13:57.149Z,29.60
2018-10-21T03:16:25.721Z,29.57
2018-10-21T03:18:54.266Z,30.20
2018-10-21T03:21:22.914Z,30.17
2018-10-21T03:23:51.356Z,30.20
2018-10-21T03:26:19.908Z,30.27
2018-10-21T03:28:48.447Z,29.90
2018-10-21T03:31:16.961Z,29.73
2018-10-21T03:33:45.636Z,27.60
2018-10-21T03:36:14.015Z,28.80
2018-10-21T03:38:42.522Z,30.13
2018-10-21T03:41:11.085Z,26.83
2018-10-21T03:43:39.600Z,29.53
2018-10-21T03:46:08.166Z,28.93
2018-10-21T03:48:36.666Z,28.27
2018-10-21T03:51:05.235Z,29.43
2018-10-21T03:53:33.727Z,28.43
2018-10-21T03:56:02.276Z,27.30
2018-10-21T03:58:30.788Z,28.73
2018-10-21T04:00:59.386Z,27.57
2018-10-21T04:03:27.842Z,27.13
2018-10-21T04:05:56.640Z,25.80
2018-10-21T04:08:25.367Z,24.97
2018-10-21T04:10:53.888Z,25.17
2018-10-21T04:13:22.447Z,26.07
2018-10-21T04:15:50.939Z,24.03
2018-10-21T04:18:19.487Z,25.70
2018-10-21T04:20:47.985Z,24.60
2018-10-21T04:23:16.523Z,25.33
2018-10-21T04:25:45.120Z,24.77
2018-10-21T04:28:13.690Z,25.80
2018-10-21T04:30:43.005Z,22.93
2018-10-21T04:33:46.186Z,24.37
2018-10-21T04:36:19.989Z,23.40
2018-10-21T04:40:03.397Z,24.07
2018-10-21T04:42:31.944Z,23.43
2018-10-21T04:45:01.011Z,23.63
2018-10-21T04:47:29.879Z,22.50
2018-10-21T04:49:58.570Z,23.53
2018-10-21T04:52:27.755Z,23.70
2018-10-21T04:55:00.542Z,23.27
2018-10-21T04:57:29.228Z,22.23
2018-10-21T04:59:57.816Z,23.00
2018-10-21T05:02:26.401Z,24.37
2018-10-21T05:04:55.039Z,25.70
2018-10-21T05:07:23.624Z,24.57
2018-10-21T05:09:52.190Z,23.80
2018-10-21T05:12:20.772Z,24.00
2018-10-21T05:14:49.285Z,23.80
2018-10-21T05:17:17.798Z,23.90
2018-10-21T05:19:46.370Z,25.07
2018-10-21T05:22:15.018Z,24.40
2018-10-21T05:24:43.528Z,24.53
2018-10-21T05:27:12.056Z,24.67
2018-10-21T05:29:40.551Z,24.50
2018-10-21T05:32:09.117Z,24.03
2018-10-21T05:34:37.755Z,23.27
2018-10-21T05:37:06.581Z,25.93
2018-10-21T05:39:35.118Z,24.60
2018-10-21T05:42:03.685Z,23.83
2018-10-21T05:44:32.239Z,25.47
2018-10-21T05:47:00.850Z,24.70
2018-10-21T05:49:29.387Z,24.67
2018-10-21T05:51:57.930Z,26.70
2018-10-21T05:54:26.526Z,25.93
2018-10-21T05:56:55.057Z,24.77
2018-10-21T05:59:23.609Z,25.43
2018-10-21T06:01:52.085Z,24.93
2018-10-21T06:04:20.644Z,25.87
2018-10-21T06:06:49.164Z,25.50
2018-10-21T06:09:17.667Z,23.67
2018-10-21T06:11:46.224Z,24.23
2018-10-21T06:14:14.718Z,25.43
2018-10-21T06:16:51.385Z,26.43
2018-10-21T06:19:25.582Z,24.97
2018-10-21T06:21:54.169Z,25.80
2018-10-21T06:24:22.650Z,24.50
2018-10-21T06:26:51.188Z,24.77
2018-10-21T06:29:19.734Z,25.73
2018-10-21T06:31:48.357Z,27.97
2018-10-21T06:34:17.128Z,28.33
2018-10-21T06:36:46.044Z,27.83
2018-10-21T06:39:14.617Z,33.13
2018-10-21T06:41:43.084Z,33.83
2018-10-21T06:44:11.541Z,32.87
2018-10-21T06:46:40.090Z,34.43
2018-10-21T06:49:08.707Z,35.53
2018-10-21T06:51:37.189Z,34.10
2018-10-21T06:54:05.638Z,38.83
2018-10-21T06:56:34.255Z,38.40
2018-10-21T06:59:02.733Z,38.10
2018-10-21T07:01:31.592Z,38.67
2018-10-21T07:04:00.093Z,38.03
2018-10-21T07:06:29.426Z,38.43
2018-10-21T07:08:59.538Z,39.03
2018-10-21T07:11:28.074Z,39.80
2018-10-21T07:13:57.420Z,39.27
2018-10-21T07:16:26.644Z,41.17
2018-10-21T07:18:55.266Z,41.37
2018-10-21T07:21:24.391Z,42.10
2018-10-21T07:23:52.872Z,40.57
2018-10-21T07:26:21.561Z,40.77
2018-10-21T07:28:50.094Z,42.73
2018-10-21T07:31:18.626Z,38.90
2018-10-21T07:33:47.141Z,41.00
2018-10-21T07:36:15.813Z,40.97
2018-10-21T07:38:44.300Z,38.93
2018-10-21T07:41:12.783Z,40.63
2018-10-21T07:43:41.315Z,39.10
2018-10-21T07:46:09.956Z,39.13
2018-10-21T07:48:38.451Z,39.00
2018-10-21T07:51:07.610Z,40.93
2018-10-21T07:53:36.102Z,41.57
2018-10-21T07:56:05.045Z,39.77
2018-10-21T07:58:33.523Z,38.10
2018-10-21T08:01:02.159Z,39.63
2018-10-21T08:03:30.693Z,40.43
2018-10-21T08:07:08.089Z,39.63
2018-10-21T08:09:36.749Z,39.43
2018-10-21T08:12:05.300Z,38.73
2018-10-21T08:14:33.850Z,38.20
2018-10-21T08:17:02.454Z,39.07
2018-10-21T08:19:31.199Z,38.90
2018-10-21T08:21:59.786Z,37.63
2018-10-21T08:24:31.529Z,38.67
2018-10-21T08:27:00.190Z,37.97
2018-10-21T08:29:28.715Z,37.77
2018-10-21T08:31:57.232Z,39.10
2018-10-21T08:34:26.333Z,37.60
2018-10-21T08:36:54.797Z,37.53
2018-10-21T08:39:23.355Z,37.40
2018-10-21T08:41:51.890Z,35.23
2018-10-21T08:44:20.371Z,36.23
2018-10-21T08:46:48.893Z,36.67
2018-10-21T08:49:17.476Z,35.97
2018-10-21T08:51:46.005Z,37.43
2018-10-21T08:54:14.484Z,36.67
2018-10-21T08:56:43.025Z,35.63
2018-10-21T08:59:11.639Z,36.50
2018-10-21T09:01:40.155Z,34.87
2018-10-21T09:04:08.745Z,36.33
2018-10-21T09:06:37.269Z,36.20
2018-10-21T09:09:08.276Z,35.13
2018-10-21T09:11:36.798Z,36.50
2018-10-21T09:14:05.418Z,36.40
2018-10-21T09:16:34.142Z,36.30
2018-10-21T09:19:02.505Z,34.50
2018-10-21T09:21:31.084Z,35.47
2018-10-21T09:23:59.622Z,33.00
2018-10-21T09:26:28.208Z,34.27
2018-10-21T09:28:56.920Z,35.07
2018-10-21T09:31:25.489Z,34.17
2018-10-21T09:33:54.109Z,34.20
2018-10-21T09:36:23.375Z,33.90
2018-10-21T09:38:52.523Z,33.03
2018-10-21T09:41:21.780Z,33.47
2018-10-21T09:43:50.924Z,34.93
2018-10-21T09:46:20.342Z,34.10
2018-10-21T09:48:49.527Z,40.47
2018-10-21T09:51:18.055Z,34.10
2018-10-21T09:53:46.567Z,32.60
2018-10-21T09:56:15.078Z,32.90
2018-10-21T09:58:43.602Z,34.77
2018-10-21T10:01:17.417Z,33.33
2018-10-21T10:03:46.084Z,33.50
2018-10-21T10:06:14.728Z,36.53
2018-10-21T10:08:43.246Z,34.23
2018-10-21T10:11:11.822Z,34.30
2018-10-21T10:13:41.475Z,33.10
2018-10-21T10:16:14.914Z,34.73
2018-10-21T10:18:51.639Z,34.47
2018-10-21T10:21:20.313Z,34.50
2018-10-21T10:23:48.845Z,35.20
2018-10-21T10:26:17.698Z,36.23
2018-10-21T10:28:46.204Z,35.53
2018-10-21T10:31:14.800Z,35.50
2018-10-21T10:33:43.313Z,35.63
2018-10-21T10:36:11.899Z,34.67
2018-10-21T10:38:40.456Z,34.33
2018-10-21T10:41:08.974Z,34.53
2018-10-21T10:43:37.492Z,33.77
2018-10-21T10:46:06.162Z,32.60
2018-10-21T10:48:34.617Z,32.53
2018-10-21T10:51:03.187Z,34.67
2018-10-21T10:53:31.690Z,33.73
2018-10-21T10:56:00.257Z,33.20
2018-10-21T10:58:28.779Z,33.03
2018-10-21T11:00:57.365Z,32.77
2018-10-21T11:03:26.012Z,31.97
2018-10-21T11:05:54.678Z,31.73
2018-10-21T11:08:23.148Z,33.07
2018-10-21T11:10:51.883Z,32.37
2018-10-21T11:13:20.408Z,34.20
2018-10-21T11:15:52.889Z,32.13
2018-10-21T11:18:21.863Z,32.13
2018-10-21T11:20:51.088Z,31.90
2018-10-21T11:23:20.220Z,31.20
2018-10-21T11:25:48.774Z,32.27
2018-10-21T11:28:18.005Z,33.63
2018-10-21T11:30:46.484Z,32.17
2018-10-21T11:33:15.004Z,30.93
2018-10-21T11:35:43.568Z,31.03
2018-10-21T11:38:12.226Z,30.93
2018-10-21T11:40:40.722Z,29.90
2018-10-21T11:43:09.286Z,27.60
2018-10-21T11:45:37.903Z,27.97
2018-10-21T11:48:06.466Z,28.10
2018-10-21T11:50:34.987Z,28.10
2018-10-21T11:53:03.552Z,26.67
2018-10-21T11:55:37.186Z,27.83
2018-10-21T11:58:07.497Z,28.03
2018-10-21T12:00:36.099Z,26.30
2018-10-21T12:03:04.757Z,25.47
2018-10-21T12:05:33.268Z,24.73
2018-10-21T12:08:02.332Z,24.10
2018-10-21T12:10:31.026Z,23.73
2018-10-21T12:12:59.568Z,23.23
2018-10-21T12:15:28.052Z,23.27
2018-10-21T12:17:56.568Z,23.43
2018-10-21T12:20:25.075Z,21.87
2018-10-21T12:22:53.643Z,22.60
2018-10-21T12:25:22.385Z,22.03
2018-10-21T12:27:50.759Z,21.73
2018-10-21T12:30:19.310Z,21.37
2018-10-21T12:32:47.815Z,23.87
2018-10-21T12:35:16.409Z,22.67
2018-10-21T12:37:44.833Z,23.73
2018-10-21T12:40:13.442Z,23.20
2018-10-21T12:42:41.888Z,22.10
2018-10-21T12:45:11.812Z,20.83
2018-10-21T12:47:40.494Z,20.73
2018-10-21T12:50:09.425Z,21.27
2018-10-21T12:52:37.969Z,22.00
2018-10-21T12:55:07.989Z,22.13
2018-10-21T12:57:36.388Z,21.60
2018-10-21T13:00:04.967Z,22.07
2018-10-21T13:02:33.482Z,20.87
2018-10-21T13:05:01.991Z,21.27
2018-10-21T13:07:30.499Z,21.57
2018-10-21T13:09:59.060Z,22.17
2018-10-21T13:12:27.504Z,21.20
2018-10-21T13:14:55.963Z,20.97
2018-10-21T13:17:24.420Z,20.67
2018-10-21T13:19:52.976Z,20.57
2018-10-21T13:22:21.837Z,20.03
2018-10-21T13:24:50.410Z,21.10
2018-10-21T13:27:18.895Z,19.57
2018-10-21T13:29:47.436Z,19.70
2018-10-21T13:32:15.945Z,20.10
2018-10-21T13:34:44.546Z,18.90
2018-10-21T13:37:13.091Z,16.73
2018-10-21T13:39:41.661Z,16.63
2018-10-21T13:42:10.191Z,16.17
2018-10-21T13:44:38.711Z,15.93
2018-10-21T13:47:07.244Z,15.90
2018-10-21T13:49:35.782Z,15.63
2018-10-21T13:52:04.551Z,14.67
2018-10-21T13:54:33.047Z,13.77
2018-10-21T13:57:02.760Z,14.93
2018-10-21T13:59:31.521Z,14.60
2018-10-21T14:02:00.037Z,14.87
2018-10-21T14:04:28.814Z,14.73
2018-10-21T14:06:57.353Z,15.87
2018-10-21T14:09:25.898Z,14.70
2018-10-21T14:11:55.436Z,14.67
2018-10-21T14:14:24.786Z,14.57
2018-10-21T14:16:53.443Z,12.87
2018-10-21T14:19:22.027Z,14.17
2018-10-21T14:21:50.812Z,12.93
2018-10-21T14:24:19.490Z,13.77
2018-10-21T14:26:47.850Z,13.10
2018-10-21T14:29:16.988Z,12.47
2018-10-21T14:31:45.473Z,11.87
2018-10-21T14:34:14.536Z,12.00
2018-10-21T14:36:43.145Z,12.03
2018-10-21T14:39:13.164Z,11.37
2018-10-21T14:41:41.794Z,10.83
2018-10-21T14:44:10.358Z,12.07
2018-10-21T14:46:39.559Z,11.43
2018-10-21T14:49:09.098Z,11.67
2018-10-21T14:51:37.606Z,12.10
2018-10-21T14:54:06.496Z,11.03
2018-10-21T14:56:35.221Z,11.23
2018-10-21T14:59:03.839Z,11.00
2018-10-21T15:01:32.388Z,11.73
2018-10-21T15:10:01.000Z,11.70
2018-10-21T15:12:29.410Z,10.33
2018-10-21T15:14:57.942Z,9.87
2018-10-21T15:17:26.439Z,10.80
2018-10-21T15:19:54.989Z,11.00
2018-10-21T15:22:23.475Z,12.00
2018-10-21T15:24:52.065Z,10.43
2018-10-21T15:27:20.520Z,11.23
2018-10-21T15:29:49.058Z,12.00
2018-10-21T15:32:17.740Z,13.23
2018-10-21T15:34:46.418Z,12.97
2018-10-21T15:37:15.260Z,12.27
2018-10-21T15:39:43.870Z,12.40
2018-10-21T15:42:12.303Z,14.23
2018-10-21T15:44:40.863Z,12.53
2018-10-21T15:47:09.351Z,12.83
2018-10-21T15:49:37.894Z,13.37
2018-10-21T15:52:06.583Z,14.17
2018-10-21T15:54:35.203Z,13.70
2018-10-21T15:57:03.704Z,15.13
2018-10-21T15:59:32.246Z,14.60
2018-10-21T16:02:00.841Z,13.60
2018-10-21T16:04:29.513Z,15.37
2018-10-21T16:06:58.012Z,15.97
2018-10-21T16:09:26.568Z,15.67
2018-10-21T16:11:55.076Z,17.17
2018-10-21T16:14:23.684Z,16.40
2018-10-21T16:16:52.361Z,15.77
2018-10-21T16:19:20.983Z,16.23
2018-10-21T16:21:49.593Z,16.93
2018-10-21T16:24:18.105Z,16.90
2018-10-21T16:26:46.682Z,17.67
2018-10-21T16:29:15.295Z,17.50
2018-10-21T16:31:43.823Z,16.60
2018-10-21T16:34:12.451Z,19.23
2018-10-21T16:36:40.957Z,18.63
2018-10-21T16:39:10.337Z,18.03
2018-10-21T16:41:38.910Z,18.90
2018-10-21T16:44:07.496Z,18.33
2018-10-21T16:46:36.155Z,18.90
2018-10-21T16:49:04.788Z,19.30
2018-10-21T16:51:33.355Z,19.40
2018-10-21T16:54:01.892Z,19.40
2018-10-21T16:56:30.416Z,19.87
2018-10-21T16:58:58.946Z,19.57
2018-10-21T17:01:27.481Z,20.20
2018-10-21T17:03:56.035Z,18.90
2018-10-21T17:06:24.492Z,18.20
2018-10-21T17:08:53.009Z,19.10
2018-10-21T17:11:21.563Z,18.23
2018-10-21T17:13:49.988Z,16.00
2018-10-21T17:16:18.538Z,18.50
2018-10-21T17:18:47.050Z,19.97
2018-10-21T17:21:15.593Z,17.80
2018-10-21T17:23:44.168Z,17.07
2018-10-21T17:26:12.772Z,17.40
2018-10-21T17:28:41.327Z,16.70
2018-10-21T17:31:09.872Z,16.87
2018-10-21T17:33:38.945Z,15.87
2018-10-21T17:36:08.306Z,15.60
2018-10-21T17:38:36.901Z,16.53
2018-10-21T17:41:05.386Z,15.83
2018-10-21T17:43:33.899Z,15.87
2018-10-21T17:46:02.432Z,15.37
2018-10-21T17:48:31.174Z,14.40
2018-10-21T17:51:00.039Z,13.23
2018-10-21T17:53:28.543Z,12.90
2018-10-21T17:55:57.043Z,13.53
2018-10-21T17:58:25.760Z,12.87
2018-10-21T18:00:54.235Z,13.77
2018-10-21T18:03:22.771Z,13.33
2018-10-21T18:05:51.381Z,12.77
2018-10-21T18:08:19.869Z,12.40
2018-10-21T18:10:48.365Z,12.50
2018-10-21T18:13:16.944Z,11.23
2018-10-21T18:15:45.563Z,10.70
2018-10-21T18:18:14.159Z,10.00
2018-10-21T18:20:42.835Z,10.00
2018-10-21T18:23:11.323Z,9.43
2018-10-21T18:25:39.816Z,9.97
2018-10-21T18:28:08.465Z,9.50
2018-10-21T18:30:36.961Z,9.23
2018-10-21T18:33:05.691Z,9.13
2018-10-21T18:35:34.150Z,9.13
2018-10-21T18:38:02.682Z,8.87
2018-10-21T18:40:31.241Z,9.00
2018-10-21T18:42:59.735Z,9.00
2018-10-21T18:45:28.369Z,8.63
2018-10-21T18:47:57.422Z,8.87
2018-10-21T18:50:26.141Z,8.37
2018-10-21T18:52:57.620Z,7.80
2018-10-21T18:55:26.181Z,8.20
2018-10-21T18:57:54.754Z,8.03
2018-10-21T19:00:23.478Z,7.97
2018-10-21T19:02:52.098Z,8.07
2018-10-21T19:05:20.757Z,8.00
2018-10-21T19:07:49.270Z,7.97
2018-10-21T19:10:17.917Z,8.00
2018-10-21T19:12:59.568Z,7.70
2018-10-21T19:15:15.040Z,8.37
2018-10-21T19:17:43.566Z,7.87
2018-10-21T19:20:13.951Z,7.90
2018-10-21T19:22:42.475Z,8.50
2018-10-21T19:25:12.336Z,8.63
2018-10-21T19:27:40.768Z,8.47
2018-10-21T19:30:10.154Z,8.10
2018-10-21T19:32:38.698Z,8.17
2018-10-21T19:35:08.119Z,8.43
2018-10-21T19:37:36.585Z,9.30
2018-10-21T19:40:05.735Z,9.03
2018-10-21T19:42:34.184Z,8.83
2018-10-21T19:45:02.753Z,8.50
2018-10-21T19:47:31.290Z,8.93
2018-10-21T19:50:09.701Z,8.17
2018-10-21T19:52:43.369Z,8.43
2018-10-21T19:55:12.502Z,8.53
2018-10-21T19:57:41.266Z,8.87
2018-10-21T20:00:12.712Z,8.20
2018-10-21T20:02:41.412Z,9.13
2018-10-21T20:05:10.416Z,8.17
2018-10-21T20:07:38.921Z,8.57
2018-10-21T20:10:09.259Z,7.70
2018-10-21T20:12:38.147Z,8.13
2018-10-21T20:15:07.779Z,8.00
2018-10-21T20:17:36.518Z,7.83
2018-10-21T20:20:06.193Z,8.37
2018-10-21T20:22:34.744Z,7.80
2018-10-21T20:25:03.427Z,7.60
2018-10-21T20:27:31.972Z,7.87
2018-10-21T20:30:00.666Z,7.37
2018-10-21T20:32:29.188Z,7.43
2018-10-21T20:34:57.740Z,8.30
2018-10-21T20:37:26.872Z,7.30
2018-10-21T20:39:55.476Z,7.57
2018-10-21T20:42:24.118Z,7.93
2018-10-21T20:44:53.169Z,7.63
2018-10-21T20:47:21.830Z,8.47
2018-10-21T20:49:50.341Z,8.40
2018-10-21T20:52:18.965Z,9.23
2018-10-21T20:54:48.692Z,8.07
2018-10-21T20:57:17.186Z,8.23
2018-10-21T20:59:46.948Z,8.40
2018-10-21T21:02:16.925Z,8.77
2018-10-21T21:04:45.538Z,8.67
2018-10-21T21:07:14.108Z,9.10
2018-10-21T21:09:42.875Z,9.27
2018-10-21T21:12:11.380Z,8.83
2018-10-21T21:14:39.896Z,8.77
2018-10-21T21:17:08.404Z,9.43
2018-10-21T21:19:36.894Z,8.57
2018-10-21T21:22:05.622Z,9.23
2018-10-21T21:24:34.113Z,9.17
2018-10-21T21:27:02.698Z,9.70
2018-10-21T21:29:31.138Z,9.50
2018-10-21T21:31:59.606Z,9.83
2018-10-21T21:34:28.050Z,10.40
2018-10-21T21:36:56.573Z,9.63
2018-10-21T21:39:25.060Z,9.53
2018-10-21T21:41:53.597Z,10.23
2018-10-21T21:44:22.076Z,9.77
2018-10-21T21:46:50.581Z,10.70
2018-10-21T21:49:19.084Z,10.37
2018-10-21T21:51:47.649Z,10.73
2018-10-21T21:54:16.199Z,10.63
2018-10-21T21:56:46.521Z,10.87
2018-10-21T21:59:14.970Z,10.23
2018-10-21T22:01:43.667Z,11.47
2018-10-21T22:04:12.274Z,11.63
2018-10-21T22:06:40.770Z,12.73
2018-10-21T22:09:11.256Z,11.97
2018-10-21T22:11:39.916Z,11.97
2018-10-21T22:14:09.115Z,12.70
2018-10-21T22:16:37.638Z,12.67
2018-10-21T22:19:06.508Z,13.50
2018-10-21T22:21:35.571Z,12.90
2018-10-21T22:24:04.470Z,14.33
2018-10-21T22:26:33.049Z,14.47
2018-10-21T22:29:01.594Z,15.43
2018-10-21T22:31:30.235Z,14.70
2018-10-21T22:33:58.909Z,14.70
2018-10-21T22:36:27.607Z,15.03
2018-10-21T22:38:56.299Z,16.13
2018-10-21T22:41:24.912Z,16.13
2018-10-21T22:43:53.572Z,17.23
2018-10-21T22:46:22.157Z,17.77
2018-10-21T22:48:50.924Z,17.97
2018-10-21T22:51:19.547Z,18.23
2018-10-21T22:53:48.081Z,17.13
2018-10-21T22:56:16.604Z,17.60
2018-10-21T22:58:45.221Z,17.40
2018-10-21T23:01:13.979Z,17.47
2018-10-21T23:03:42.624Z,16.73
2018-10-21T23:06:11.406Z,17.17
2018-10-21T23:08:39.943Z,15.80
2018-10-21T23:11:08.557Z,15.80
2018-10-21T23:13:37.102Z,15.33
2018-10-21T23:16:06.135Z,15.80
2018-10-21T23:18:34.798Z,16.20
2018-10-21T23:21:03.441Z,15.43
2018-10-21T23:23:32.093Z,14.90
2018-10-21T23:26:00.657Z,14.10
2018-10-21T23:28:29.256Z,15.40
2018-10-21T23:30:57.997Z,15.63
2018-10-21T23:33:26.530Z,15.00
2018-10-21T23:35:55.140Z,15.43
2018-10-21T23:38:23.787Z,15.67
2018-10-21T23:40:52.719Z,14.63
2018-10-21T23:43:21.360Z,14.27
2018-10-21T23:45:49.951Z,14.27
2018-10-21T23:48:18.583Z,14.63
2018-10-21T23:50:47.096Z,15.37
2018-10-21T23:53:15.697Z,14.67
2018-10-21T23:55:44.228Z,15.87
2018-10-21T23:58:12.877Z,14.33
